Skip to main content.
Our real time weather data display below is updated continuously via our 24/7 live data feed.
 TIME   TEMPERATURE   WINDSPEED   DIRECTION   HUMIDITY   BAROMETER   RAINFALL 
10:21 16.0°C (60.8°F) 18.5 kmh (11.5 mph) N 82% 1020.0hPa (30.12 inHg) 0.0mm (0.00 in.)
9:21 16.0°C (60.8 °F) 13.0 kmh (8.1 mph) N 93% 1019.0hPa (30.09 inHg) 0.0mm (0.00 in.)
8:21 14.0°C (57.2 °F) 7.4 kmh (4.6 mph) N 100% 1019.0hPa (30.09 inHg) 0.0mm (0.00 in.)
7:21 13.0°C (55.4 °F) 3.7 kmh (2.3 mph) NW 100% 1017.9hPa (30.06 inHg) 0.0mm (0.00 in.)
6:21 13.0°C (55.4 °F) 3.7 kmh (2.3 mph) N 100% 1017.9hPa (30.06 inHg) 0.0mm (0.00 in.)
5:21 13.0°C (55.4 °F) 9.3 kmh (5.8 mph) N 100% 1019.0hPa (30.09 inHg) 0.0mm (0.00 in.)
4:21 14.0°C (57.2 °F) 5.6 kmh (3.5 mph) NNW 100% 1019.0hPa (30.09 inHg) 0.0mm (0.00 in.)
3:21 14.0°C (57.2 °F) 5.6 kmh (3.5 mph) NE 100% 1019.0hPa (30.09 inHg) 0.0mm (0.00 in.)
2:21 15.0°C (59.0 °F) 7.4 kmh (4.6 mph) NNE 100% 1019.0hPa (30.09 inHg) 0.0mm (0.00 in.)
1:21 15.0°C (59.0 °F) 9.3 kmh (5.8 mph) NE 93% 1019.0hPa (30.09 inHg) 0.0mm (0.00 in.)
0:21 15.0°C (59.0 °F) 13.0 kmh (8.1 mph) NE 100% 1019.0hPa (30.09 inHg) 0.0mm (0.00 in.)
23:21 15.0°C (59.0 °F) 11.1 kmh (6.9 mph) NE 93% 1019.0hPa (30.09 inHg) 0.0mm (0.00 in.)
22:21 15.0°C (59.0 °F) 9.3 kmh (5.8 mph) ENE 93% 1019.0hPa (30.09 inHg) 0.0mm (0.00 in.)
21:21 15.0°C (59.0 °F) 9.3 kmh (5.8 mph) ENE 93% 1019.0hPa (30.09 inHg) 0.0mm (0.00 in.)
20:21 16.0°C (60.8 °F) 16.7 kmh (10.4 mph) ENE 87% 1017.9hPa (30.06 inHg) 0.0mm (0.00 in.)
19:21 16.0°C (60.8 °F) 20.4 kmh (12.7 mph) E 87% 1017.9hPa (30.06 inHg) 0.0mm (0.00 in.)
18:21 16.0°C (60.8 °F) 16.7 kmh (10.4 mph) E 87% 1017.9hPa (30.06 inHg) 0.0mm (0.00 in.)
17:21 16.0°C (60.8 °F) 22.2 kmh (13.8 mph) ENE 87% 1016.9hPa (30.03 inHg) 0.0mm (0.00 in.)
16:21 16.0°C (60.8 °F) 37.0 kmh (23.0 mph) ESE 87% 1017.9hPa (30.06 inHg) 0.0mm (0.00 in.)
15:21 16.0°C (60.8 °F) 31.5 kmh (19.6 mph) ESE 87% 1017.9hPa (30.06 inHg) 0.0mm (0.00 in.)
14:21 17.0°C (62.6 °F) 29.6 kmh (18.4 mph) ESE 77% 1019.0hPa (30.09 inHg) 0.0mm (0.00 in.)
13:21 17.0°C (62.6 °F) 25.9 kmh (16.1 mph) ESE 77% 1020.0hPa (30.12 inHg) 0.0mm (0.00 in.)
12:21 18.0°C (64.4 °F) 33.3 kmh (20.7 mph) ESE 72% 1020.0hPa (30.12 inHg) 0.0mm (0.00 in.)
11:21 17.0°C (62.6 °F) 37.0 kmh (23.0 mph) ESE 77% 1020.0hPa (30.12 inHg) 0.0mm (0.00 in.)